Time;durP1;ratioP1;P1;durP2;ratioP2;P2;SDS_P1;SDS_P2;PMS_P1;PMS_P2;Temp;Humidity;BMP_temperature;BMP_pressure;BME280_temperature;BME280_humidity;BME280_pressure;Samples;Min_cycle;Max_cycle;Signal;HPM_P1;HPM_P2
2023/08/07 00:00:09;;;;;;;2.70;2.20;;;13.80;99.90;;;;;;5080595;28;20210;-67
2023/08/07 00:02:35;;;;;;;2.87;2.57;;;13.80;99.90;;;;;;5081800;28;20203;-67
2023/08/07 00:05:00;;;;;;;2.57;2.37;;;13.80;99.90;;;;;;5082056;28;20422;-67
2023/08/07 00:07:26;;;;;;;5.70;2.33;;;13.80;99.90;;;;;;5082291;28;20423;-66
2023/08/07 00:09:52;;;;;;;4.10;3.00;;;13.80;99.90;;;;;;5083101;28;20929;-67
2023/08/07 00:12:17;;;;;;;3.50;3.20;;;13.80;99.90;;;;;;5082531;28;20188;-67
2023/08/07 00:14:43;;;;;;;3.33;3.03;;;13.90;99.90;;;;;;5062950;28;20272;-67
2023/08/07 00:17:09;;;;;;;3.00;2.80;;;13.90;99.90;;;;;;5082853;28;20169;-67
2023/08/07 00:19:34;;;;;;;2.77;2.57;;;13.90;99.90;;;;;;5081934;28;20200;-67
2023/08/07 00:22:00;;;;;;;3.83;3.20;;;13.90;99.90;;;;;;5082484;28;20269;-67
2023/08/07 00:24:26;;;;;;;4.83;3.17;;;13.90;99.90;;;;;;5062849;28;20180;-67
2023/08/07 00:26:52;;;;;;;3.00;2.77;;;13.80;99.90;;;;;;5082048;28;20176;-67
2023/08/07 00:29:17;;;;;;;4.30;3.60;;;13.90;99.90;;;;;;5076100;28;20621;-67
2023/08/07 00:31:43;;;;;;;4.70;3.93;;;13.90;99.90;;;;;;5061439;28;20443;-67
2023/08/07 00:34:09;;;;;;;4.50;4.10;;;13.90;99.90;;;;;;5062046;28;20204;-67
2023/08/07 00:36:35;;;;;;;4.70;4.20;;;13.90;99.90;;;;;;5060772;28;20190;-67
2023/08/07 00:39:03;;;;;;;5.23;4.73;;;14.00;99.90;;;;;;5062233;28;20416;-67
2023/08/07 00:41:29;;;;;;;5.30;4.67;;;13.90;99.90;;;;;;5061387;28;20220;-67
2023/08/07 00:43:55;;;;;;;5.30;4.80;;;13.90;99.90;;;;;;5061944;28;20851;-67
2023/08/07 00:46:21;;;;;;;7.13;5.07;;;13.90;99.90;;;;;;5062409;28;20480;-67
2023/08/07 00:48:47;;;;;;;6.30;5.10;;;13.90;99.90;;;;;;5065096;28;20273;-67
2023/08/07 00:51:12;;;;;;;10.30;4.80;;;13.90;99.90;;;;;;5065403;28;20454;-67
2023/08/07 00:53:39;;;;;;;6.53;4.40;;;13.90;99.90;;;;;;5061052;28;20180;-67
2023/08/07 00:56:06;;;;;;;7.60;5.13;;;13.90;99.90;;;;;;5061330;28;20168;-68
2023/08/07 00:58:32;;;;;;;6.00;5.40;;;13.90;99.90;;;;;;5043551;28;20534;-67
2023/08/07 01:00:58;;;;;;;10.77;5.47;;;14.00;99.90;;;;;;5061859;28;20493;-68
2023/08/07 01:03:24;;;;;;;6.30;5.40;;;14.10;99.90;;;;;;5061730;28;20431;-67
2023/08/07 01:05:50;;;;;;;6.67;5.70;;;14.10;99.90;;;;;;5059724;28;20300;-67
2023/08/07 01:08:16;;;;;;;6.47;5.77;;;14.10;99.90;;;;;;5061777;28;20519;-67
2023/08/07 01:10:48;;;;;;;6.90;6.20;;;14.00;99.90;;;;;;5060615;28;20209;-67
2023/08/07 01:13:27;;;;;;;7.90;5.90;;;14.00;99.90;;;;;;5061354;28;20415;-68
2023/08/07 01:15:59;;;;;;;7.80;6.00;;;14.00;99.90;;;;;;5059653;28;20411;-67
2023/08/07 01:18:26;;;;;;;7.30;5.67;;;14.00;99.90;;;;;;5043368;28;20423;-68
2023/08/07 01:20:52;;;;;;;6.57;5.40;;;14.00;99.90;;;;;;5060521;28;20849;-67
2023/08/07 01:23:18;;;;;;;6.47;5.40;;;14.00;99.90;;;;;;5043332;28;20426;-67
2023/08/07 01:25:44;;;;;;;6.07;5.47;;;14.00;99.90;;;;;;5058832;28;20641;-67
2023/08/07 01:28:27;;;;;;;7.77;5.40;;;14.00;99.90;;;;;;5061368;28;20193;-67
2023/08/07 01:30:58;;;;;;;6.80;5.40;;;14.00;99.90;;;;;;5079685;28;20184;-67
2023/08/07 01:33:48;;;;;;;7.93;5.33;;;14.00;99.90;;;;;;5081216;28;20410;-68
2023/08/07 01:36:16;;;;;;;11.77;5.77;;;13.90;99.90;;;;;;5080352;28;20878;-68
2023/08/07 01:38:42;;;;;;;7.33;6.10;;;14.00;99.90;;;;;;5062771;28;20418;-67
2023/08/07 01:41:09;;;;;;;7.10;6.40;;;13.90;99.90;;;;;;5080700;28;20538;-67
2023/08/07 01:43:35;;;;;;;9.63;6.70;;;13.70;99.90;;;;;;5081107;28;20522;-68
2023/08/07 01:46:01;;;;;;;8.20;7.40;;;13.80;99.90;;;;;;5079645;28;20423;-67
2023/08/07 01:48:27;;;;;;;8.43;6.80;;;13.70;99.90;;;;;;5062502;28;20443;-68
2023/08/07 01:50:53;;;;;;;8.43;6.90;;;13.70;99.90;;;;;;5080121;28;20467;-67
2023/08/07 01:53:19;;;;;;;9.23;7.33;;;13.70;99.90;;;;;;5062744;28;20180;-68
2023/08/07 01:55:44;;;;;;;7.70;6.80;;;13.70;99.90;;;;;;5079302;28;20492;-68
2023/08/07 01:58:10;;;;;;;8.63;6.67;;;13.80;99.90;;;;;;5081231;28;20190;-68
2023/08/07 02:00:36;;;;;;;6.80;6.10;;;13.80;99.90;;;;;;5080784;28;20755;-68
2023/08/07 02:03:01;;;;;;;6.53;5.93;;;13.80;99.90;;;;;;5080579;28;21026;-68
2023/08/07 02:05:27;;;;;;;6.80;6.10;;;13.70;99.90;;;;;;5080069;28;20705;-68
2023/08/07 02:07:52;;;;;;;6.07;4.83;;;13.80;99.90;;;;;;5080402;28;20168;-68
2023/08/07 02:10:18;;;;;;;4.27;3.87;;;13.70;99.90;;;;;;5080448;28;20649;-68
2023/08/07 02:12:44;;;;;;;5.67;4.40;;;13.70;99.90;;;;;;5080342;28;20247;-67
2023/08/07 02:15:10;;;;;;;5.60;4.17;;;13.70;99.90;;;;;;5079944;28;20195;-68
2023/08/07 02:17:38;;;;;;;4.50;3.80;;;13.80;99.90;;;;;;5082332;28;20199;-68
2023/08/07 02:20:05;;;;;;;4.37;4.07;;;13.80;99.90;;;;;;5083858;28;20892;-69
2023/08/07 02:22:31;;;;;;;4.13;3.77;;;13.80;99.90;;;;;;5055416;28;20459;-68
2023/08/07 02:24:56;;;;;;;3.87;3.57;;;13.80;99.90;;;;;;5059225;28;20526;-68
2023/08/07 02:27:22;;;;;;;3.20;3.00;;;13.80;99.90;;;;;;5060584;28;20189;-68
2023/08/07 02:29:48;;;;;;;3.80;3.50;;;13.80;99.90;;;;;;5069969;28;20177;-68
2023/08/07 02:32:13;;;;;;;3.13;2.90;;;13.80;99.90;;;;;;5080393;28;20222;-68
2023/08/07 02:34:39;;;;;;;3.67;2.90;;;13.80;99.90;;;;;;5079148;28;20706;-68
2023/08/07 02:37:05;;;;;;;2.77;2.50;;;13.70;99.90;;;;;;5079416;28;20192;-68
2023/08/07 02:39:30;;;;;;;2.50;2.30;;;13.80;99.90;;;;;;5080167;28;20199;-68
2023/08/07 02:41:56;;;;;;;2.90;2.60;;;13.80;99.90;;;;;;5079598;28;20202;-68
2023/08/07 02:44:21;;;;;;;3.13;2.83;;;13.80;99.90;;;;;;5079866;28;20211;-68
2023/08/07 02:46:47;;;;;;;3.20;2.93;;;13.70;99.90;;;;;;5079848;28;20183;-68
2023/08/07 02:49:13;;;;;;;3.60;2.67;;;13.80;99.90;;;;;;5080238;28;21096;-67
2023/08/07 02:51:38;;;;;;;2.77;2.57;;;13.80;99.90;;;;;;5074521;28;20189;-68
2023/08/07 02:54:04;;;;;;;5.13;3.40;;;13.80;99.90;;;;;;5077829;28;20260;-68
2023/08/07 02:56:30;;;;;;;3.10;2.83;;;13.80;99.90;;;;;;5077446;28;20181;-68
2023/08/07 02:58:58;;;;;;;3.37;2.90;;;13.80;99.90;;;;;;5077187;28;20238;-68
2023/08/07 03:01:24;;;;;;;4.27;3.90;;;13.90;99.90;;;;;;5080968;28;20208;-68
2023/08/07 03:03:49;;;;;;;3.70;2.70;;;13.90;99.90;;;;;;5060037;28;20493;-68
2023/08/07 03:06:15;;;;;;;3.20;2.90;;;13.80;99.90;;;;;;5079761;28;20916;-68
2023/08/07 03:08:42;;;;;;;3.07;2.77;;;13.80;99.90;;;;;;5079716;28;20646;-68
2023/08/07 03:11:08;;;;;;;2.80;2.50;;;13.80;99.90;;;;;;5079559;28;20184;-68
2023/08/07 03:13:34;;;;;;;3.00;2.73;;;13.80;99.90;;;;;;5081979;28;20420;-68
2023/08/07 03:16:04;;;;;;;3.00;2.70;;;13.90;99.90;;;;;;5080315;28;20184;-68
2023/08/07 03:18:30;;;;;;;3.37;2.00;;;13.80;99.90;;;;;;5082076;28;20188;-68
2023/08/07 03:20:56;;;;;;;2.67;2.23;;;13.80;99.90;;;;;;5063364;28;21082;-68
2023/08/07 03:23:27;;;;;;;2.40;2.20;;;13.80;99.90;;;;;;5077543;28;20904;-68
2023/08/07 03:26:10;;;;;;;3.80;2.00;;;13.80;99.90;;;;;;5073754;28;21202;-68
2023/08/07 03:28:36;;;;;;;3.13;1.80;;;13.80;99.90;;;;;;5081679;28;20476;-68
2023/08/07 03:31:02;;;;;;;6.03;1.90;;;13.80;99.90;;;;;;5080870;28;20452;-67
2023/08/07 03:33:28;;;;;;;4.20;2.00;;;13.80;99.90;;;;;;5081109;28;20430;-68
2023/08/07 03:35:54;;;;;;;2.93;2.00;;;13.80;99.90;;;;;;5080636;28;20419;-68
2023/08/07 03:38:19;;;;;;;3.37;2.30;;;13.70;99.90;;;;;;5080947;28;20184;-68
2023/08/07 03:40:45;;;;;;;3.80;3.00;;;13.80;99.90;;;;;;5057169;28;20212;-68
2023/08/07 03:43:11;;;;;;;3.63;2.43;;;13.80;99.90;;;;;;5076789;28;20280;-68
2023/08/07 03:45:36;;;;;;;4.10;3.80;;;13.80;99.90;;;;;;5081423;28;20172;-68
2023/08/07 03:48:02;;;;;;;5.93;4.67;;;13.80;99.90;;;;;;5082823;28;20196;-68
2023/08/07 03:50:30;;;;;;;5.93;5.00;;;13.80;99.90;;;;;;5084818;28;20184;-68
2023/08/07 03:52:56;;;;;;;8.10;5.70;;;13.70;99.90;;;;;;5083374;28;20219;-68
2023/08/07 03:55:22;;;;;;;11.17;6.07;;;13.70;99.90;;;;;;5078161;28;21173;-68
2023/08/07 03:57:47;;;;;;;7.80;6.30;;;13.70;99.90;;;;;;5081479;28;20184;-68
2023/08/07 04:00:13;;;;;;;19.93;7.17;;;13.70;99.90;;;;;;5078898;28;20212;-68
2023/08/07 04:02:40;;;;;;;9.60;7.40;;;13.60;99.90;;;;;;5081140;28;20982;-68
2023/08/07 04:05:06;;;;;;;10.70;7.33;;;13.60;99.90;;;;;;5079311;28;20499;-68
2023/08/07 04:07:32;;;;;;;9.67;7.60;;;13.60;99.90;;;;;;5075758;28;21303;-68
2023/08/07 04:09:57;;;;;;;8.67;7.80;;;13.60;99.90;;;;;;5060865;28;20419;-68
2023/08/07 04:12:23;;;;;;;12.17;8.70;;;13.50;99.90;;;;;;5059722;28;20528;-68
2023/08/07 04:14:49;;;;;;;9.60;8.00;;;13.60;99.90;;;;;;5060303;28;20189;-68
2023/08/07 04:17:14;;;;;;;15.30;8.77;;;13.60;99.90;;;;;;5060051;28;20260;-68
2023/08/07 04:19:40;;;;;;;14.60;8.50;;;13.60;99.90;;;;;;5060987;28;20205;-68
2023/08/07 04:22:06;;;;;;;14.80;9.43;;;13.70;99.90;;;;;;5060920;28;20728;-68
2023/08/07 04:24:31;;;;;;;9.87;8.87;;;13.70;99.90;;;;;;5060062;28;21031;-68
2023/08/07 04:26:57;;;;;;;10.87;8.50;;;13.60;99.90;;;;;;5060718;28;20180;-68
2023/08/07 04:29:24;;;;;;;10.77;9.50;;;13.60;99.90;;;;;;5059869;28;20202;-68
2023/08/07 04:31:50;;;;;;;13.77;8.80;;;13.60;99.90;;;;;;5060779;28;20566;-68
2023/08/07 04:34:15;;;;;;;13.37;8.40;;;13.60;99.90;;;;;;5059657;28;20423;-68
2023/08/07 04:36:41;;;;;;;10.27;8.37;;;13.60;99.90;;;;;;5060199;28;20185;-68
2023/08/07 04:39:07;;;;;;;9.90;8.57;;;13.50;99.90;;;;;;5061086;28;20614;-68
2023/08/07 04:41:32;;;;;;;10.53;8.23;;;13.50;99.90;;;;;;5060711;28;20220;-68
2023/08/07 04:43:58;;;;;;;10.43;8.90;;;13.50;99.90;;;;;;5061603;28;20173;-68
2023/08/07 04:46:24;;;;;;;12.80;8.50;;;13.50;99.90;;;;;;5060924;28;20512;-68
2023/08/07 04:48:49;;;;;;;12.17;8.53;;;13.50;99.90;;;;;;5061824;28;20188;-68
2023/08/07 04:51:15;;;;;;;10.57;9.07;;;13.60;99.90;;;;;;5071034;28;20183;-68
2023/08/07 04:53:41;;;;;;;15.10;8.97;;;13.50;99.90;;;;;;5078571;28;20592;-68
2023/08/07 04:56:07;;;;;;;12.37;9.97;;;13.50;99.90;;;;;;5072310;28;20248;-68
2023/08/07 04:58:33;;;;;;;14.93;8.83;;;13.50;99.90;;;;;;5079135;28;20414;-68
2023/08/07 05:00:59;;;;;;;13.40;10.03;;;13.50;99.90;;;;;;5071628;28;20990;-68
2023/08/07 05:03:27;;;;;;;12.47;9.40;;;13.40;99.90;;;;;;5078154;28;20192;-68
2023/08/07 05:06:01;;;;;;;14.80;10.23;;;13.50;99.90;;;;;;5080597;28;20429;-68
2023/08/07 05:08:27;;;;;;;11.10;9.27;;;13.50;99.90;;;;;;5081067;28;20420;-68
2023/08/07 05:10:53;;;;;;;14.33;8.60;;;13.50;99.90;;;;;;5081533;28;20952;-68
2023/08/07 05:13:19;;;;;;;13.23;9.03;;;13.50;99.90;;;;;;5081201;28;20188;-68
2023/08/07 05:15:47;;;;;;;12.50;9.33;;;13.40;99.90;;;;;;5061563;28;20207;-68
2023/08/07 05:18:13;;;;;;;12.17;7.90;;;13.40;99.90;;;;;;5082837;28;20190;-68
2023/08/07 05:20:38;;;;;;;10.57;6.70;;;13.40;99.90;;;;;;5064496;28;20470;-70
2023/08/07 05:23:04;;;;;;;10.57;5.73;;;13.40;99.90;;;;;;5082932;28;20537;-68
2023/08/07 05:25:29;;;;;;;11.33;5.23;;;13.40;99.90;;;;;;5081163;28;20576;-68
2023/08/07 05:27:55;;;;;;;8.80;5.87;;;13.40;99.90;;;;;;5081495;28;20330;-68
2023/08/07 05:30:21;;;;;;;7.97;5.13;;;13.50;99.90;;;;;;5066466;28;20173;-69
2023/08/07 05:32:46;;;;;;;8.53;4.70;;;13.50;99.90;;;;;;5060659;28;20177;-68
2023/08/07 05:35:12;;;;;;;5.87;4.07;;;13.40;99.90;;;;;;5070412;28;20237;-68
2023/08/07 05:37:38;;;;;;;6.73;4.03;;;13.40;99.90;;;;;;5062428;28;20628;-68
2023/08/07 05:40:04;;;;;;;6.67;3.53;;;13.40;99.90;;;;;;5081238;28;20240;-68
2023/08/07 05:42:30;;;;;;;7.90;4.07;;;13.30;99.90;;;;;;5080628;28;20176;-68
2023/08/07 05:44:56;;;;;;;4.50;3.57;;;13.40;99.90;;;;;;5080608;28;20427;-68
2023/08/07 05:47:21;;;;;;;4.80;3.30;;;13.30;99.90;;;;;;5081110;28;20237;-68
2023/08/07 05:49:47;;;;;;;5.90;3.80;;;13.20;99.90;;;;;;5077939;28;20177;-67
2023/08/07 05:52:14;;;;;;;8.27;4.27;;;13.30;99.90;;;;;;5076740;28;20180;-67
2023/08/07 05:54:40;;;;;;;4.70;3.00;;;13.20;99.90;;;;;;5071583;28;20180;-67
2023/08/07 05:57:06;;;;;;;6.67;3.33;;;13.20;99.90;;;;;;5077153;28;20443;-68
2023/08/07 05:59:34;;;;;;;3.87;3.07;;;13.20;99.90;;;;;;5069764;28;20184;-67
2023/08/07 06:02:00;;;;;;;8.87;3.30;;;13.30;99.90;;;;;;5073207;28;20423;-67
2023/08/07 06:04:25;;;;;;;6.73;2.70;;;13.40;99.90;;;;;;5074917;28;20427;-67
2023/08/07 06:06:51;;;;;;;5.37;3.50;;;13.30;99.90;;;;;;5071130;28;20181;-67
2023/08/07 06:09:17;;;;;;;3.60;2.97;;;13.40;99.90;;;;;;5062800;28;20183;-67
2023/08/07 06:11:43;;;;;;;5.30;3.87;;;13.40;99.90;;;;;;5080279;28;20199;-67
2023/08/07 06:14:09;;;;;;;4.93;3.63;;;13.40;99.90;;;;;;5079453;28;20416;-68
2023/08/07 06:16:34;;;;;;;5.80;3.90;;;13.40;99.90;;;;;;5077210;28;20216;-69
2023/08/07 06:19:00;;;;;;;7.67;4.97;;;13.40;99.90;;;;;;5065214;28;20854;-68
2023/08/07 06:21:28;;;;;;;9.40;5.60;;;13.40;99.90;;;;;;5060392;28;20295;-68
2023/08/07 06:23:54;;;;;;;6.57;5.60;;;13.40;99.90;;;;;;5059655;28;20792;-68
2023/08/07 06:26:20;;;;;;;7.97;6.53;;;13.50;99.90;;;;;;5060435;28;21316;-68
2023/08/07 06:28:45;;;;;;;10.50;7.27;;;13.50;99.90;;;;;;5061063;28;20416;-68
2023/08/07 06:31:12;;;;;;;7.20;6.50;;;13.40;99.90;;;;;;5062918;28;20183;-68
2023/08/07 06:33:38;;;;;;;7.93;7.13;;;13.50;99.90;;;;;;5079451;28;20218;-69
2023/08/07 06:36:05;;;;;;;7.53;6.83;;;13.50;99.90;;;;;;5076916;28;20419;-68
2023/08/07 06:38:31;;;;;;;8.17;7.30;;;13.50;99.90;;;;;;5078672;28;20441;-69
2023/08/07 06:40:57;;;;;;;8.47;7.63;;;13.50;99.90;;;;;;5082327;28;20523;-68
2023/08/07 06:43:22;;;;;;;9.63;7.63;;;13.50;99.90;;;;;;5073465;28;20419;-68
2023/08/07 06:45:55;;;;;;;7.53;6.83;;;13.50;99.90;;;;;;5074735;28;20262;-68
2023/08/07 06:48:21;;;;;;;9.53;7.40;;;13.50;99.90;;;;;;5075846;28;20193;-68
2023/08/07 06:50:51;;;;;;;9.80;7.40;;;13.60;99.90;;;;;;5071848;28;20970;-68
2023/08/07 06:53:17;;;;;;;8.43;7.70;;;13.50;99.90;;;;;;5068636;28;20511;-68
2023/08/07 06:55:43;;;;;;;8.20;7.50;;;13.50;99.90;;;;;;5063427;28;20530;-68
2023/08/07 06:58:09;;;;;;;8.17;7.47;;;13.60;99.90;;;;;;5075088;28;20785;-68
2023/08/07 07:00:36;;;;;;;8.63;7.63;;;13.60;99.90;;;;;;5073139;28;20473;-68
2023/08/07 07:03:04;;;;;;;7.63;6.93;;;13.60;99.90;;;;;;5083525;28;20483;-68
2023/08/07 07:05:31;;;;;;;8.13;7.27;;;13.70;99.90;;;;;;5082623;28;20952;-68
2023/08/07 07:07:58;;;;;;;9.00;7.80;;;13.80;99.90;;;;;;5080744;28;21206;-68
2023/08/07 07:10:23;;;;;;;11.67;7.97;;;13.70;99.90;;;;;;5083003;28;20855;-69
2023/08/07 07:12:51;;;;;;;10.23;8.87;;;13.70;99.90;;;;;;5065837;28;20475;-68
2023/08/07 07:15:17;;;;;;;9.03;8.13;;;13.80;99.90;;;;;;5063490;28;20453;-68
2023/08/07 07:17:43;;;;;;;9.20;8.30;;;13.70;99.90;;;;;;5063722;28;20415;-68
2023/08/07 07:20:09;;;;;;;9.17;8.27;;;13.80;99.90;;;;;;5063332;28;20276;-68
2023/08/07 07:22:35;;;;;;;10.03;8.97;;;13.70;99.90;;;;;;5074386;28;20184;-68
2023/08/07 07:25:01;;;;;;;8.80;7.90;;;13.80;99.90;;;;;;5074222;28;20415;-68
2023/08/07 07:27:27;;;;;;;8.00;7.20;;;13.70;99.90;;;;;;5072622;28;20438;-68
2023/08/07 07:29:53;;;;;;;8.63;7.83;;;13.70;99.90;;;;;;5073043;28;20663;-68
2023/08/07 07:32:18;;;;;;;8.80;7.13;;;13.70;99.90;;;;;;5051673;28;20288;-68
2023/08/07 07:34:44;;;;;;;8.70;7.90;;;13.80;99.90;;;;;;5069656;28;20223;-68
2023/08/07 07:37:10;;;;;;;8.90;8.00;;;13.80;99.90;;;;;;5062559;28;20209;-68
2023/08/07 07:39:36;;;;;;;8.37;7.47;;;13.80;99.90;;;;;;5064700;28;20176;-68
2023/08/07 07:42:03;;;;;;;8.50;7.20;;;13.80;99.90;;;;;;5064472;28;20188;-68
2023/08/07 07:44:29;;;;;;;9.17;7.90;;;13.80;99.90;;;;;;5082737;28;20190;-68
2023/08/07 07:46:54;;;;;;;11.03;8.37;;;13.80;99.90;;;;;;5063273;28;21187;-68
2023/08/07 07:49:20;;;;;;;7.53;6.83;;;13.80;99.90;;;;;;5046990;28;20227;-68
2023/08/07 07:51:46;;;;;;;7.23;6.53;;;13.80;99.90;;;;;;5063037;28;20169;-68
2023/08/07 07:54:12;;;;;;;6.67;6.10;;;13.80;99.90;;;;;;5060946;28;20189;-68
2023/08/07 07:56:37;;;;;;;6.83;6.10;;;13.80;99.90;;;;;;5068699;28;20177;-68
2023/08/07 07:59:03;;;;;;;7.20;6.47;;;13.80;99.90;;;;;;5076392;28;20177;-68
2023/08/07 08:01:29;;;;;;;6.60;6.00;;;13.90;99.90;;;;;;5070012;28;20216;-68
2023/08/07 08:03:54;;;;;;;7.70;6.63;;;13.90;99.90;;;;;;5062082;28;20671;-68
2023/08/07 08:06:20;;;;;;;8.60;6.47;;;13.90;99.90;;;;;;5073045;28;20230;-68
2023/08/07 08:08:46;;;;;;;6.20;5.47;;;14.00;99.90;;;;;;5083096;28;20210;-68
2023/08/07 08:11:11;;;;;;;6.33;5.70;;;14.00;99.90;;;;;;5082182;28;20208;-68
2023/08/07 08:13:39;;;;;;;7.50;5.37;;;14.00;99.90;;;;;;5074210;28;20185;-68
2023/08/07 08:16:05;;;;;;;4.40;4.00;;;14.10;99.90;;;;;;5061427;28;20535;-68
2023/08/07 08:18:31;;;;;;;7.40;4.70;;;14.10;99.90;;;;;;5080347;28;20432;-68
2023/08/07 08:20:57;;;;;;;5.70;4.57;;;14.10;99.90;;;;;;5086410;28;20466;-68
2023/08/07 08:23:22;;;;;;;4.53;4.13;;;14.10;99.90;;;;;;5081989;28;20415;-68
2023/08/07 08:25:49;;;;;;;4.30;3.90;;;14.10;99.90;;;;;;5078982;28;20936;-68
2023/08/07 08:28:15;;;;;;;4.23;3.90;;;14.10;99.90;;;;;;5063384;28;20192;-68
2023/08/07 08:30:42;;;;;;;6.03;4.70;;;14.20;99.90;;;;;;5065677;28;20438;-68
2023/08/07 08:33:11;;;;;;;5.80;3.77;;;14.20;99.90;;;;;;5072542;28;21337;-69
2023/08/07 08:35:37;;;;;;;4.07;2.97;;;14.20;99.90;;;;;;5066756;28;20435;-68
2023/08/07 08:38:03;;;;;;;3.00;2.40;;;14.20;99.90;;;;;;5062136;28;20505;-68
2023/08/07 08:40:30;;;;;;;4.27;3.20;;;14.20;99.90;;;;;;5077990;28;20220;-68
2023/08/07 08:42:57;;;;;;;3.70;2.30;;;14.20;99.90;;;;;;5064416;28;20451;-68
2023/08/07 08:45:26;;;;;;;2.40;2.20;;;14.20;99.90;;;;;;5080590;28;20430;-69
2023/08/07 08:48:00;;;;;;;5.23;2.00;;;14.20;99.90;;;;;;5070847;28;20442;-68
2023/08/07 08:50:26;;;;;;;3.50;2.57;;;14.20;99.90;;;;;;5074700;28;20419;-69
2023/08/07 08:52:55;;;;;;;4.37;3.13;;;14.20;99.90;;;;;;5044101;28;20854;-69
2023/08/07 08:55:21;;;;;;;3.83;2.83;;;14.20;99.90;;;;;;5060321;28;20466;-69
2023/08/07 08:57:47;;;;;;;5.00;3.07;;;14.20;99.90;;;;;;5059544;28;20507;-69
2023/08/07 09:00:34;;;;;;;5.07;3.80;;;14.10;99.90;;;;;;5060395;28;20447;-68
2023/08/07 09:03:01;;;;;;;8.50;4.33;;;14.20;99.90;;;;;;5061976;28;20173;-69
2023/08/07 09:05:27;;;;;;;12.90;5.73;;;14.20;99.90;;;;;;5041719;28;20811;-68
2023/08/07 09:07:53;;;;;;;7.57;4.70;;;14.30;99.90;;;;;;5061729;28;20510;-68
2023/08/07 09:10:20;;;;;;;6.20;5.17;;;14.40;99.90;;;;;;5060461;28;20415;-68
2023/08/07 09:13:05;;;;;;;10.70;4.30;;;14.40;99.90;;;;;;5061743;28;20478;-68
2023/08/07 09:15:32;;;;;;;7.13;4.60;;;14.60;99.90;;;;;;5060533;28;21142;-68
2023/08/07 09:17:59;;;;;;;10.83;5.20;;;14.70;99.90;;;;;;5061520;28;20426;-68
2023/08/07 09:20:28;;;;;;;9.03;4.80;;;14.80;99.90;;;;;;5060703;28;21200;-68
2023/08/07 09:22:54;;;;;;;11.63;5.20;;;14.90;99.90;;;;;;5074187;28;20426;-68
2023/08/07 09:25:31;;;;;;;9.83;5.07;;;14.90;99.90;;;;;;5065364;28;21099;-69
2023/08/07 09:27:57;;;;;;;10.43;6.17;;;14.90;99.90;;;;;;5061039;28;21291;-68
2023/08/07 09:30:28;;;;;;;9.90;5.27;;;14.80;99.90;;;;;;5075080;28;20450;-69
2023/08/07 09:32:56;;;;;;;9.03;5.60;;;14.90;99.90;;;;;;5076345;28;20507;-69
2023/08/07 09:35:22;;;;;;;9.90;6.03;;;15.00;99.90;;;;;;5069020;28;20837;-68
2023/08/07 09:37:48;;;;;;;8.90;6.30;;;15.10;99.90;;;;;;5061322;28;20416;-68
2023/08/07 09:40:15;;;;;;;5.97;5.23;;;15.20;99.90;;;;;;5060653;28;20455;-68
2023/08/07 09:42:41;;;;;;;9.90;6.03;;;15.30;99.90;;;;;;5061060;28;20457;-68
2023/08/07 09:45:29;;;;;;;11.23;5.43;;;15.40;99.90;;;;;;5060292;28;20423;-68
2023/08/07 09:48:08;;;;;;;10.10;5.73;;;15.60;99.90;;;;;;5061676;28;20196;-68
2023/08/07 09:50:34;;;;;;;8.80;5.60;;;15.60;99.90;;;;;;5064065;28;21102;-69
2023/08/07 09:52:59;;;;;;;7.50;5.47;;;15.70;99.90;;;;;;5065275;28;20415;-68
2023/08/07 09:55:26;;;;;;;11.93;5.50;;;15.80;99.90;;;;;;5042076;28;21339;-68
2023/08/07 09:57:52;;;;;;;9.67;4.97;;;15.80;99.90;;;;;;5059737;28;20173;-68
2023/08/07 10:00:21;;;;;;;11.43;4.50;;;15.70;99.90;;;;;;5059361;28;20491;-68
2023/08/07 10:02:50;;;;;;;9.63;4.20;;;15.70;99.90;;;;;;5060521;28;20403;-68
2023/08/07 10:05:16;;;;;;;11.57;4.90;;;15.60;99.90;;;;;;5059999;28;21127;-68
2023/08/07 10:07:42;;;;;;;9.17;4.50;;;15.50;99.90;;;;;;5060059;28;20407;-68
2023/08/07 10:10:09;;;;;;;5.63;4.00;;;15.50;99.90;;;;;;5060500;28;21230;-68
2023/08/07 10:12:36;;;;;;;5.00;2.57;;;15.30;99.90;;;;;;5059952;28;20254;-69
2023/08/07 10:15:03;;;;;;;4.67;3.17;;;15.20;99.90;;;;;;5059978;28;20430;-68
2023/08/07 10:17:30;;;;;;;4.13;3.10;;;15.20;99.90;;;;;;5060080;28;20470;-68
2023/08/07 10:19:56;;;;;;;6.23;4.20;;;15.20;99.90;;;;;;5060553;28;20558;-68
2023/08/07 10:22:29;;;;;;;5.40;3.27;;;15.30;99.90;;;;;;5060148;28;20480;-69
2023/08/07 10:24:58;;;;;;;11.90;3.87;;;15.40;99.90;;;;;;5070071;28;20824;-68
2023/08/07 10:27:27;;;;;;;7.90;4.10;;;15.60;99.90;;;;;;5062172;28;20426;-68
2023/08/07 10:29:54;;;;;;;8.77;4.20;;;15.80;99.90;;;;;;5069705;28;21000;-68
2023/08/07 10:32:21;;;;;;;10.73;4.47;;;16.00;99.90;;;;;;5068594;28;20982;-68
2023/08/07 10:34:49;;;;;;;9.33;4.43;;;16.00;99.90;;;;;;5073887;28;20458;-68
2023/08/07 10:37:41;;;;;;;7.90;4.07;;;16.20;99.90;;;;;;5064606;28;20762;-68
2023/08/07 10:40:12;;;;;;;11.57;4.33;;;16.30;99.90;;;;;;5069939;28;21043;-68
2023/08/07 10:42:55;;;;;;;7.80;4.37;;;16.40;99.90;;;;;;5079377;28;21265;-68
2023/08/07 10:45:22;;;;;;;9.27;3.87;;;16.50;99.90;;;;;;5079253;28;20450;-68
2023/08/07 10:48:01;;;;;;;8.33;3.90;;;16.60;99.90;;;;;;5080847;28;21010;-68
2023/08/07 10:50:52;;;;;;;7.70;4.60;;;16.50;99.90;;;;;;5072978;28;21265;-68
2023/08/07 10:53:40;;;;;;;13.20;4.57;;;16.50;99.90;;;;;;5069899;28;21002;-68
2023/08/07 10:56:20;;;;;;;7.83;4.63;;;16.40;99.90;;;;;;5061566;28;20427;-68
2023/08/07 10:58:52;;;;;;;9.53;4.90;;;16.40;99.90;;;;;;5078086;28;20410;-68
2023/08/07 11:01:21;;;;;;;8.00;4.13;;;16.40;99.90;;;;;;5079542;28;20978;-68
2023/08/07 11:04:00;;;;;;;5.83;3.50;;;16.40;99.90;;;;;;5078673;28;20508;-68
2023/08/07 11:06:31;;;;;;;5.97;3.17;;;16.40;99.90;;;;;;5076363;28;20429;-68
2023/08/07 11:08:58;;;;;;;4.67;3.50;;;16.30;99.90;;;;;;5079315;28;20446;-68
2023/08/07 11:11:24;;;;;;;5.00;3.07;;;16.30;99.90;;;;;;5080144;28;20422;-68
2023/08/07 11:13:50;;;;;;;6.80;3.40;;;16.30;99.90;;;;;;5078533;28;20410;-68
2023/08/07 11:16:17;;;;;;;5.33;3.03;;;16.40;99.90;;;;;;5079416;28;20188;-68
2023/08/07 11:18:43;;;;;;;6.97;2.70;;;16.40;99.90;;;;;;5080507;28;20461;-68
2023/08/07 11:21:11;;;;;;;7.33;3.37;;;16.50;99.90;;;;;;5084414;28;20812;-69
2023/08/07 11:23:37;;;;;;;4.87;2.90;;;16.60;99.90;;;;;;5063801;28;20454;-68
2023/08/07 11:26:03;;;;;;;4.90;3.47;;;16.70;99.90;;;;;;5083440;28;20422;-67
2023/08/07 11:28:29;;;;;;;9.57;3.20;;;16.80;99.90;;;;;;5083658;28;20421;-68
2023/08/07 11:30:56;;;;;;;9.47;3.93;;;17.00;99.90;;;;;;5075123;28;20850;-68
2023/08/07 11:33:24;;;;;;;12.00;3.90;;;17.20;99.90;;;;;;5080402;28;20476;-68
2023/08/07 11:35:50;;;;;;;7.83;3.30;;;17.40;99.90;;;;;;5055305;28;20987;-68
2023/08/07 11:38:32;;;;;;;8.73;3.60;;;17.40;99.90;;;;;;5068398;28;20442;-68
2023/08/07 11:41:02;;;;;;;5.70;3.30;;;17.50;99.90;;;;;;5082740;28;20454;-68
2023/08/07 11:43:32;;;;;;;6.00;2.93;;;17.70;99.90;;;;;;5083107;28;20423;-68
2023/08/07 11:46:00;;;;;;;5.90;3.43;;;17.80;99.90;;;;;;5081497;28;20446;-68
2023/08/07 11:48:27;;;;;;;6.87;3.13;;;17.80;99.90;;;;;;5071959;28;20442;-68
2023/08/07 11:50:55;;;;;;;4.47;2.90;;;17.70;99.90;;;;;;5081970;28;20517;-68
2023/08/07 11:53:21;;;;;;;4.73;2.60;;;17.60;99.90;;;;;;5082827;28;21412;-68
2023/08/07 11:55:51;;;;;;;7.00;3.10;;;17.50;99.90;;;;;;5080796;28;20480;-68
2023/08/07 11:58:17;;;;;;;7.07;2.83;;;17.50;99.90;;;;;;5082038;28;20465;-68
2023/08/07 12:00:46;;;;;;;7.53;2.70;;;17.60;99.90;;;;;;5080899;28;20675;-68
2023/08/07 12:03:26;;;;;;;4.17;2.53;;;17.70;99.90;;;;;;5082567;28;20207;-68
2023/08/07 12:05:53;;;;;;;8.87;2.33;;;17.80;99.90;;;;;;5076603;28;20442;-68
2023/08/07 12:08:19;;;;;;;7.90;2.87;;;17.80;99.90;;;;;;5073417;28;21085;-68
2023/08/07 12:10:53;;;;;;;5.83;2.63;;;17.80;99.90;;;;;;5081474;28;20442;-68
2023/08/07 12:13:28;;;;;;;3.60;2.50;;;18.00;99.90;;;;;;5082481;28;20422;-68
2023/08/07 12:15:55;;;;;;;7.27;3.20;;;18.10;99.90;;;;;;5080736;28;21090;-68
2023/08/07 12:18:23;;;;;;;4.50;2.57;;;18.30;99.90;;;;;;5082371;28;20453;-68
2023/08/07 12:20:52;;;;;;;7.80;2.57;;;18.40;99.90;;;;;;5081464;28;20462;-68
2023/08/07 12:23:20;;;;;;;5.80;2.70;;;18.50;99.90;;;;;;5081682;28;20509;-68
2023/08/07 12:25:46;;;;;;;3.63;2.40;;;18.60;99.90;;;;;;5080880;28;20427;-68
2023/08/07 12:28:12;;;;;;;5.43;2.40;;;18.60;99.90;;;;;;5079730;28;21005;-68
2023/08/07 12:30:38;;;;;;;4.00;2.37;;;18.60;99.90;;;;;;5050631;28;20181;-68
2023/08/07 12:33:05;;;;;;;8.73;2.70;;;18.70;99.90;;;;;;5068259;28;20801;-67
2023/08/07 12:35:31;;;;;;;4.30;2.50;;;18.70;99.90;;;;;;5073697;28;20492;-68
2023/08/07 12:37:57;;;;;;;5.23;2.30;;;18.80;99.90;;;;;;5071688;28;20431;-68
2023/08/07 12:40:24;;;;;;;3.90;2.33;;;18.80;99.90;;;;;;5075276;28;20519;-67
2023/08/07 12:42:50;;;;;;;4.87;2.67;;;19.00;99.90;;;;;;5081190;28;20176;-68
2023/08/07 12:45:18;;;;;;;4.43;2.20;;;19.10;99.90;;;;;;5080409;28;20430;-68